Singleton, Australia

7:16 PM AEDT on March 23, 2017 (GMT +1100)
Singleton High School | | Change Station

Elev 148 ft 32.57 °S, 151.18 °E | Updated 48 seconds ago

Mostly Cloudy
Mostly Cloudy
72.2 °F
Feels Like 71 °F
N
0.0
Wind Variable Wind from ESE
Gusts 0.0 mph

Today
High -- | Low -- °F
--% Chance of Precip.
Yesterday
High -- | Low -- °F
Precip. -- in
Pressure 30.01 in
Visibility 6.2 miles
Clouds Scattered Clouds 1500 ft
Mostly Cloudy 7000 ft
Heat Index 71 °F
Dew Point 68 °F
Humidity 86%
Rainfall 0.00 in
Snow Depth Not available.
7:00 AM 7:02 PM
Waning Crescent, 25% visible
METAR YWLM 230800Z 20008KT 9999 SCT015 BKN070 22/19 Q1016 FM0830 18010KT 9999 -SHRA FEW015 BKN020 INTER 0900/1100 5000 SHRA BKN010
Pressure 30.01 in
Visibility 6.2 miles
Clouds Scattered Clouds 1500 ft
Mostly Cloudy 7000 ft
Heat Index 71 °F
Dew Point 68 °F
Humidity 86%
Rainfall 0.00 in
Snow Depth Not available.
7:00 AM 7:02 PM
Waning Crescent, 25% visible
METAR YWLM 230800Z 20008KT 9999 SCT015 BKN070 22/19 Q1016 FM0830 18010KT 9999 -SHRA FEW015 BKN020 INTER 0900/1100 5000 SHRA BKN010

Get Severe Weather Alerts

Thanks for signing up!

Be on the lookout for a verification email in your inbox.

You'll start receiving the daily forecast at 8 AM.

×

10-Day Weather Forecast

×

Almanac

Astronomy

Mar. 23, 2017 Rise Set
Actual Time
Civil Twilight
Nautical Twilight
Astronomical Twilight
Moon
Length of Visible Light
Length of Day
Tomorrow will be .
, % of the Moon is Illuminated

Today's Extremes

Country Highs Country Lows

Community

WunderPhotos

Upload Photos

1,962,540 photos uploaded!

WunderBlog® & News

Nearby

Air Quality

  Air Quality AQ Index Pollutant
Not available.

Snow Depth

Station Depth Elevation

Earthquake Activity

City Distance Mag. Time & Date
Minimum magnitude displayed is 2.5.

Earthquake Activity

City Distance Mag. Time & Date
Minimum magnitude displayed is 2.5.

Coastal Water Temperatures

Place Temperature

Stations

Nearby Weather Stations

Station Location Temp. Windchill Dew Point Humidity Wind Precip. Elev Updated Type